Time;durP1;ratioP1;P1;durP2;ratioP2;P2;SDS_P1;SDS_P2;PMS_P1;PMS_P2;Temp;Humidity;BMP_temperature;BMP_pressure;BME280_temperature;BME280_humidity;BME280_pressure;Samples;Min_cycle;Max_cycle;Signal;HPM_P1;HPM_P2
2021/07/15 00:00:58;;;;;;;21.13;7.57;;;19.90;99.90;;;;;;4959251;28;20041;-81
2021/07/15 00:03:28;;;;;;;16.35;7.82;;;19.90;99.90;;;;;;4958448;28;20025;-82
2021/07/15 00:05:54;;;;;;;15.15;6.72;;;19.90;99.90;;;;;;4959030;28;20027;-82
2021/07/15 00:08:22;;;;;;;15.10;6.78;;;19.90;99.90;;;;;;4958360;28;20109;-82
2021/07/15 00:10:57;;;;;;;17.20;7.25;;;19.90;99.90;;;;;;4958573;28;20026;-82
2021/07/15 00:13:24;;;;;;;16.67;6.63;;;19.90;99.90;;;;;;4975418;28;20158;-82
2021/07/15 00:15:53;;;;;;;12.35;6.35;;;19.90;99.90;;;;;;4958777;28;20023;-82
2021/07/15 00:18:26;;;;;;;17.30;6.60;;;19.90;99.90;;;;;;4958036;28;20474;-82
2021/07/15 00:20:53;;;;;;;16.15;6.03;;;19.90;99.90;;;;;;4958847;28;20034;-82
2021/07/15 00:23:19;;;;;;;10.35;5.18;;;19.80;99.80;;;;;;4958412;28;20359;-83
2021/07/15 00:25:46;;;;;;;13.50;5.50;;;19.80;99.90;;;;;;4957640;28;20023;-82
2021/07/15 00:28:13;;;;;;;12.38;5.70;;;19.70;99.90;;;;;;4958650;28;20046;-81
2021/07/15 00:30:39;;;;;;;12.25;5.50;;;19.70;99.90;;;;;;4958448;28;20395;-81
2021/07/15 00:33:06;;;;;;;15.88;5.93;;;19.70;99.90;;;;;;4975962;28;20029;-81
2021/07/15 00:35:33;;;;;;;11.43;4.90;;;19.70;99.90;;;;;;4957571;28;20464;-82
2021/07/15 00:37:59;;;;;;;11.73;4.60;;;19.70;99.90;;;;;;4958442;28;20023;-82
2021/07/15 00:40:25;;;;;;;11.13;4.22;;;19.70;99.90;;;;;;4957723;28;20058;-82
2021/07/15 00:42:51;;;;;;;11.35;4.75;;;19.70;99.90;;;;;;4958276;28;20050;-82
2021/07/15 00:45:18;;;;;;;15.15;4.70;;;19.70;99.90;;;;;;4957638;28;20542;-83
2021/07/15 00:47:44;;;;;;;12.15;4.40;;;19.70;99.90;;;;;;4958305;28;20031;-82
2021/07/15 00:50:10;;;;;;;9.13;3.83;;;19.70;99.90;;;;;;4958172;28;20023;-81
2021/07/15 00:52:38;;;;;;;13.02;5.30;;;19.70;99.90;;;;;;4974622;28;20030;-81
2021/07/15 00:55:06;;;;;;;13.82;5.45;;;19.60;99.90;;;;;;4957984;28;20464;-82
2021/07/15 00:57:32;;;;;;;11.82;5.03;;;19.60;99.90;;;;;;4957609;28;20023;-81
2021/07/15 00:59:58;;;;;;;14.93;5.97;;;19.60;99.90;;;;;;4958012;28;20038;-81
2021/07/15 01:02:24;;;;;;;11.95;5.85;;;19.60;99.90;;;;;;4957377;28;20473;-81
2021/07/15 01:04:50;;;;;;;13.55;6.03;;;19.50;99.90;;;;;;4975135;28;20042;-80
2021/07/15 01:07:16;;;;;;;16.02;5.80;;;19.50;99.90;;;;;;4957486;28;20057;-84
2021/07/15 01:09:42;;;;;;;15.25;6.05;;;19.50;99.90;;;;;;4957537;28;20492;-81
2021/07/15 01:12:29;;;;;;;17.40;6.15;;;19.50;99.90;;;;;;4975037;28;20035;-80
2021/07/15 01:14:59;;;;;;;13.45;6.07;;;19.50;99.90;;;;;;4957864;28;20020;-81
2021/07/15 01:17:32;;;;;;;12.50;4.78;;;19.50;99.90;;;;;;4957290;28;20030;-81
2021/07/15 01:20:22;;;;;;;14.95;6.63;;;19.50;99.90;;;;;;4957535;28;20070;-80
2021/07/15 01:23:10;;;;;;;15.40;5.88;;;19.50;99.90;;;;;;4957880;28;20038;-81
2021/07/15 01:25:38;;;;;;;11.35;5.50;;;19.50;99.90;;;;;;4956699;28;20062;-81
2021/07/15 01:28:30;;;;;;;11.82;5.13;;;19.50;99.90;;;;;;4974965;28;20027;-81
2021/07/15 01:31:01;;;;;;;16.85;5.63;;;19.40;99.90;;;;;;4957675;28;20066;-80
2021/07/15 01:33:30;;;;;;;12.80;5.68;;;19.50;99.90;;;;;;4974567;28;20030;-81
2021/07/15 01:36:09;;;;;;;14.73;5.53;;;19.40;99.90;;;;;;4953837;28;20110;-80
2021/07/15 01:39:02;;;;;;;12.50;4.65;;;19.40;99.90;;;;;;4969466;28;20046;-80
2021/07/15 01:41:41;;;;;;;10.75;4.57;;;19.40;99.90;;;;;;4952467;29;20046;-81
2021/07/15 01:44:10;;;;;;;8.88;4.65;;;19.50;99.90;;;;;;4970201;28;20027;-80
2021/07/15 01:46:36;;;;;;;9.40;4.28;;;19.40;99.90;;;;;;4954557;29;20082;-81
2021/07/15 01:49:03;;;;;;;10.18;4.75;;;19.40;99.90;;;;;;4953853;29;20034;-81
2021/07/15 01:51:31;;;;;;;13.02;5.15;;;19.30;99.90;;;;;;4953420;29;20475;-80
2021/07/15 01:53:57;;;;;;;9.35;4.38;;;19.30;99.90;;;;;;4953823;29;20119;-81
2021/07/15 01:56:22;;;;;;;10.48;4.60;;;19.40;99.90;;;;;;4953218;29;20038;-82
2021/07/15 01:58:51;;;;;;;12.70;5.05;;;19.30;99.90;;;;;;4953693;29;20027;-81
2021/07/15 02:01:18;;;;;;;13.63;5.57;;;19.40;99.90;;;;;;4953754;29;20031;-81
2021/07/15 02:03:50;;;;;;;12.90;5.53;;;19.40;99.90;;;;;;4969375;28;20051;-81
2021/07/15 02:06:17;;;;;;;12.45;5.70;;;19.30;99.90;;;;;;4969877;28;20087;-80
2021/07/15 02:08:46;;;;;;;11.68;5.88;;;19.40;99.90;;;;;;4953067;29;20035;-80
2021/07/15 02:11:14;;;;;;;15.90;6.18;;;19.40;99.90;;;;;;4953552;29;20027;-81
2021/07/15 02:13:42;;;;;;;13.23;6.13;;;19.40;99.90;;;;;;4953049;29;20024;-81
2021/07/15 02:16:08;;;;;;;15.48;6.15;;;19.40;99.90;;;;;;4954981;29;20066;-82
2021/07/15 02:18:34;;;;;;;18.20;6.45;;;19.40;99.90;;;;;;4935308;29;20435;-81
2021/07/15 02:21:01;;;;;;;14.15;5.60;;;19.40;99.90;;;;;;4932882;29;20412;-81
2021/07/15 02:23:28;;;;;;;12.38;5.85;;;19.40;99.90;;;;;;4933965;29;20058;-81
2021/07/15 02:25:56;;;;;;;12.82;5.60;;;19.40;99.90;;;;;;4934615;29;20032;-80
2021/07/15 02:28:24;;;;;;;12.57;5.68;;;19.40;99.90;;;;;;4933672;29;20497;-82
2021/07/15 02:30:53;;;;;;;15.38;5.90;;;19.40;99.90;;;;;;4933016;29;20051;-82
2021/07/15 02:33:24;;;;;;;21.02;7.30;;;19.40;99.90;;;;;;4933110;29;20380;-82
2021/07/15 02:35:53;;;;;;;11.68;5.65;;;19.40;99.90;;;;;;4941105;28;20056;-81
2021/07/15 02:38:22;;;;;;;13.50;6.45;;;19.40;99.90;;;;;;4937113;29;20145;-81
2021/07/15 02:40:49;;;;;;;14.75;6.90;;;19.40;99.90;;;;;;4937231;29;20070;-82
2021/07/15 02:43:15;;;;;;;11.80;5.72;;;19.40;99.90;;;;;;4954544;28;20027;-82
2021/07/15 02:45:40;;;;;;;12.80;6.07;;;19.40;99.90;;;;;;4953886;28;20095;-82
2021/07/15 02:48:06;;;;;;;16.00;6.07;;;19.30;99.90;;;;;;4936690;29;20034;-81
2021/07/15 02:50:32;;;;;;;11.65;5.18;;;19.30;99.90;;;;;;4953400;29;20038;-82
2021/07/15 02:53:00;;;;;;;12.98;5.00;;;19.40;99.90;;;;;;4936959;29;20030;-82
2021/07/15 02:55:27;;;;;;;14.57;5.30;;;19.40;99.90;;;;;;4936430;29;20404;-82
2021/07/15 02:57:56;;;;;;;14.82;5.30;;;19.40;99.80;;;;;;4953958;29;20031;-82
2021/07/15 03:00:24;;;;;;;10.77;5.13;;;19.40;99.80;;;;;;4936839;29;20032;-82
2021/07/15 03:02:56;;;;;;;12.07;5.28;;;19.40;99.80;;;;;;4936808;29;20034;-81
2021/07/15 03:05:26;;;;;;;15.05;5.85;;;19.40;99.80;;;;;;4936628;29;20166;-81
2021/07/15 03:08:00;;;;;;;14.70;5.70;;;19.40;99.80;;;;;;4936946;29;20023;-81
2021/07/15 03:10:27;;;;;;;11.88;4.45;;;19.40;99.80;;;;;;4935887;29;20031;-82
2021/07/15 03:12:56;;;;;;;13.55;4.93;;;19.40;99.80;;;;;;4936711;29;20043;-81
2021/07/15 03:15:22;;;;;;;11.48;4.47;;;19.40;99.70;;;;;;4936801;29;20031;-80
2021/07/15 03:17:50;;;;;;;8.90;4.22;;;19.40;99.70;;;;;;4936222;29;20029;-81
2021/07/15 03:20:38;;;;;;;12.13;4.65;;;19.40;99.70;;;;;;4953769;29;20042;-80
2021/07/15 03:23:09;;;;;;;8.73;4.07;;;19.40;99.70;;;;;;4936665;29;20034;-81
2021/07/15 03:25:35;;;;;;;11.50;4.80;;;19.40;99.70;;;;;;4954225;29;20460;-80
2021/07/15 03:28:04;;;;;;;7.53;3.53;;;19.40;99.70;;;;;;4953815;28;20024;-81
2021/07/15 03:30:31;;;;;;;10.35;4.28;;;19.40;99.70;;;;;;4935841;29;20459;-82
2021/07/15 03:32:57;;;;;;;8.40;3.83;;;19.40;99.70;;;;;;4953589;29;20026;-82
2021/07/15 03:35:24;;;;;;;9.63;3.85;;;19.50;99.70;;;;;;4935810;29;20042;-81
2021/07/15 03:37:50;;;;;;;6.45;2.92;;;19.50;99.60;;;;;;4936040;29;20031;-82
2021/07/15 03:40:21;;;;;;;9.98;3.63;;;19.40;99.60;;;;;;4953731;29;20126;-81
2021/07/15 03:42:47;;;;;;;6.63;3.00;;;19.40;99.60;;;;;;4952978;29;20070;-81
2021/07/15 03:45:18;;;;;;;6.72;2.90;;;19.40;99.60;;;;;;4936646;29;20031;-81
2021/07/15 03:47:51;;;;;;;6.85;3.42;;;19.40;99.60;;;;;;4953471;29;20031;-81
2021/07/15 03:50:26;;;;;;;8.02;3.08;;;19.40;99.60;;;;;;4953735;29;20031;-82
2021/07/15 03:52:56;;;;;;;8.05;2.78;;;19.40;99.60;;;;;;4935348;29;20130;-82
2021/07/15 03:55:25;;;;;;;8.35;3.50;;;19.40;99.60;;;;;;4927546;29;20062;-82
2021/07/15 03:57:52;;;;;;;7.95;3.40;;;19.30;99.60;;;;;;4949605;29;20120;-82
2021/07/15 04:00:25;;;;;;;6.25;3.40;;;19.40;99.70;;;;;;4937696;29;20457;-81
2021/07/15 04:02:58;;;;;;;9.55;3.25;;;19.40;99.60;;;;;;4939299;29;20115;-82
2021/07/15 04:05:25;;;;;;;6.72;3.20;;;19.40;99.60;;;;;;4937031;29;20027;-81
2021/07/15 04:07:54;;;;;;;6.50;3.00;;;19.40;99.60;;;;;;4938696;29;20039;-82
2021/07/15 04:10:21;;;;;;;6.50;2.53;;;19.40;99.60;;;;;;4939480;29;20122;-81
2021/07/15 04:12:49;;;;;;;6.13;2.95;;;19.40;99.60;;;;;;4938118;29;20031;-82
2021/07/15 04:15:19;;;;;;;6.18;2.78;;;19.40;99.70;;;;;;4956104;28;20042;-82
2021/07/15 04:18:00;;;;;;;5.63;2.93;;;19.30;99.60;;;;;;4938757;28;20112;-82
2021/07/15 04:20:27;;;;;;;7.03;3.03;;;19.30;99.60;;;;;;4919607;29;20031;-82
2021/07/15 04:22:58;;;;;;;7.43;3.05;;;19.30;99.60;;;;;;4919269;29;20078;-83
2021/07/15 04:25:25;;;;;;;5.93;2.90;;;19.30;99.60;;;;;;4937669;29;20488;-78
2021/07/15 04:27:58;;;;;;;5.97;2.58;;;19.30;99.70;;;;;;4935706;29;20028;-80
2021/07/15 04:30:24;;;;;;;5.22;2.65;;;19.20;99.70;;;;;;4919035;29;20517;-80
2021/07/15 04:33:10;;;;;;;5.70;2.72;;;19.20;99.70;;;;;;4918445;29;20435;-78
2021/07/15 04:35:37;;;;;;;5.45;2.50;;;19.20;99.70;;;;;;4934267;29;20027;-80
2021/07/15 04:38:06;;;;;;;6.25;2.38;;;19.20;99.80;;;;;;4945498;29;20106;-79
2021/07/15 04:40:34;;;;;;;7.75;2.90;;;19.10;99.80;;;;;;4955749;29;20046;-79
2021/07/15 04:43:04;;;;;;;6.07;2.30;;;19.20;99.90;;;;;;4939413;29;20031;-78
2021/07/15 04:45:33;;;;;;;6.88;2.42;;;19.10;99.90;;;;;;4937588;29;20054;-81
2021/07/15 04:47:59;;;;;;;6.68;2.70;;;19.10;99.90;;;;;;4938604;29;20023;-81
2021/07/15 04:50:31;;;;;;;7.82;2.90;;;19.20;99.90;;;;;;4939591;29;20015;-80
2021/07/15 04:53:01;;;;;;;9.20;2.95;;;19.20;99.90;;;;;;4937933;29;20023;-82
2021/07/15 04:55:28;;;;;;;5.80;2.95;;;19.20;99.90;;;;;;4937185;29;20023;-79
2021/07/15 04:57:54;;;;;;;7.47;2.97;;;19.20;99.90;;;;;;4952577;29;20038;-81
2021/07/15 05:00:22;;;;;;;8.48;3.75;;;19.20;99.90;;;;;;4936649;29;20043;-83
2021/07/15 05:02:59;;;;;;;10.32;4.13;;;19.20;99.90;;;;;;4936646;29;20031;-83
2021/07/15 05:05:25;;;;;;;11.60;4.15;;;19.20;99.90;;;;;;4919921;29;20028;-83
2021/07/15 05:07:51;;;;;;;7.93;3.55;;;19.20;99.80;;;;;;4919020;29;20050;-83
2021/07/15 05:10:17;;;;;;;8.23;3.80;;;19.20;99.80;;;;;;4919477;29;20468;-82
2021/07/15 05:12:42;;;;;;;9.80;4.00;;;19.20;99.80;;;;;;4918967;29;20028;-83
2021/07/15 05:15:10;;;;;;;11.75;4.35;;;19.20;99.80;;;;;;4931436;29;20030;-84
2021/07/15 05:17:37;;;;;;;12.25;4.30;;;19.20;99.80;;;;;;4919746;29;20019;-84
2021/07/15 05:20:07;;;;;;;6.47;3.35;;;19.30;99.80;;;;;;4919465;29;20481;-79
2021/07/15 05:22:33;;;;;;;12.10;3.95;;;19.20;99.80;;;;;;4918927;29;20019;-83
2021/07/15 05:24:59;;;;;;;9.38;3.50;;;19.20;99.80;;;;;;4919461;29;20015;-81
2021/07/15 05:27:25;;;;;;;9.07;3.78;;;19.30;99.80;;;;;;4935279;29;20024;-81
2021/07/15 05:29:50;;;;;;;9.80;3.60;;;19.30;99.70;;;;;;4934989;29;20372;-82
2021/07/15 05:32:16;;;;;;;12.45;4.40;;;19.30;99.70;;;;;;4919396;29;20019;-80
2021/07/15 05:34:42;;;;;;;11.27;3.95;;;19.30;99.70;;;;;;4936068;29;20023;-81
2021/07/15 05:37:08;;;;;;;9.88;3.85;;;19.30;99.70;;;;;;4919270;29;20055;-82
2021/07/15 05:39:34;;;;;;;10.75;4.45;;;19.30;99.70;;;;;;4919245;29;20032;-81
2021/07/15 05:42:00;;;;;;;12.88;4.07;;;19.30;99.70;;;;;;4936180;29;20028;-81
2021/07/15 05:44:25;;;;;;;10.93;4.93;;;19.30;99.70;;;;;;4919205;29;20066;-81
2021/07/15 05:46:51;;;;;;;11.50;4.80;;;19.30;99.70;;;;;;4918544;29;20054;-81
2021/07/15 05:49:17;;;;;;;9.40;4.22;;;19.30;99.70;;;;;;4935125;29;20032;-81
2021/07/15 05:51:46;;;;;;;11.10;4.50;;;19.20;99.70;;;;;;4918323;29;20070;-81
2021/07/15 05:54:13;;;;;;;13.40;4.65;;;19.20;99.70;;;;;;4936083;29;20102;-81
2021/07/15 05:56:39;;;;;;;14.18;4.85;;;19.20;99.70;;;;;;4918189;29;20448;-82
2021/07/15 05:59:04;;;;;;;9.98;4.28;;;19.30;99.70;;;;;;4918757;29;20079;-80
2021/07/15 06:01:30;;;;;;;11.52;5.38;;;19.30;99.70;;;;;;4935921;29;20478;-81
2021/07/15 06:03:56;;;;;;;14.68;5.50;;;19.30;99.70;;;;;;4935037;29;20079;-82
2021/07/15 06:06:21;;;;;;;16.98;5.22;;;19.30;99.70;;;;;;4918858;29;20479;-82
2021/07/15 06:08:47;;;;;;;13.63;5.03;;;19.30;99.60;;;;;;4918173;29;20027;-82
2021/07/15 06:11:13;;;;;;;13.30;5.53;;;19.30;99.60;;;;;;4918815;29;20329;-81
2021/07/15 06:13:39;;;;;;;13.27;4.82;;;19.30;99.60;;;;;;4934901;29;20372;-83
2021/07/15 06:16:05;;;;;;;12.75;5.18;;;19.30;99.60;;;;;;4918638;29;20052;-82
2021/07/15 06:18:31;;;;;;;15.48;5.22;;;19.30;99.60;;;;;;4918650;29;20023;-82
2021/07/15 06:20:56;;;;;;;12.95;4.95;;;19.30;99.50;;;;;;4935249;29;20425;-81
2021/07/15 06:23:22;;;;;;;14.02;5.45;;;19.30;99.50;;;;;;4917863;29;20024;-82
2021/07/15 06:25:48;;;;;;;17.75;4.85;;;19.30;99.50;;;;;;4935477;29;20036;-82
2021/07/15 06:28:13;;;;;;;12.77;5.88;;;19.30;99.50;;;;;;4918906;29;20440;-81
2021/07/15 06:30:39;;;;;;;12.95;5.85;;;19.30;99.50;;;;;;4917869;29;20370;-82
2021/07/15 06:33:05;;;;;;;15.57;5.68;;;19.30;99.50;;;;;;4918592;29;20439;-82
2021/07/15 06:35:32;;;;;;;15.77;5.15;;;19.30;99.50;;;;;;4935434;29;20024;-82
2021/07/15 06:37:57;;;;;;;14.43;5.35;;;19.30;99.50;;;;;;4917975;29;20072;-82
2021/07/15 06:40:23;;;;;;;12.90;5.13;;;19.40;99.40;;;;;;4918262;29;20039;-82
2021/07/15 06:42:49;;;;;;;11.57;4.63;;;19.40;99.40;;;;;;4934759;29;20079;-83
2021/07/15 06:45:15;;;;;;;12.07;5.03;;;19.40;99.40;;;;;;4935174;29;20023;-82
2021/07/15 06:47:42;;;;;;;12.27;4.93;;;19.40;99.30;;;;;;4934501;29;20028;-83
2021/07/15 06:50:10;;;;;;;9.88;4.28;;;19.40;99.60;;;;;;4933905;29;20028;-82
2021/07/15 06:52:37;;;;;;;10.90;4.28;;;19.40;99.40;;;;;;4918119;29;20019;-82
2021/07/15 06:55:04;;;;;;;9.05;3.22;;;19.50;99.40;;;;;;4917454;29;20515;-82
2021/07/15 06:57:30;;;;;;;9.27;3.63;;;19.50;99.40;;;;;;4918146;29;20030;-82
2021/07/15 06:59:56;;;;;;;6.95;3.00;;;19.50;99.30;;;;;;4934219;29;20028;-82
2021/07/15 07:02:23;;;;;;;7.72;3.35;;;19.60;99.30;;;;;;4918224;29;20028;-82
2021/07/15 07:04:49;;;;;;;6.82;2.90;;;19.60;99.20;;;;;;4917449;29;20110;-82
2021/07/15 07:07:14;;;;;;;6.70;2.95;;;19.60;99.20;;;;;;4918108;29;20460;-81
2021/07/15 07:09:40;;;;;;;6.78;3.08;;;19.60;99.20;;;;;;4936740;29;20062;-81
2021/07/15 07:12:06;;;;;;;6.47;2.55;;;19.60;99.20;;;;;;4935060;29;20024;-82
2021/07/15 07:14:32;;;;;;;6.32;2.90;;;19.50;99.10;;;;;;4917615;29;20027;-82
2021/07/15 07:16:58;;;;;;;6.20;3.00;;;19.50;99.20;;;;;;4917219;29;20055;-82
2021/07/15 07:19:23;;;;;;;7.55;2.53;;;19.50;99.20;;;;;;4934952;29;20031;-82
2021/07/15 07:21:49;;;;;;;5.45;2.80;;;19.60;99.20;;;;;;4932997;29;20126;-82
2021/07/15 07:24:15;;;;;;;7.10;2.90;;;19.50;99.20;;;;;;4917981;29;20126;-82
2021/07/15 07:26:40;;;;;;;6.97;3.13;;;19.50;99.10;;;;;;4917931;29;20024;-82
2021/07/15 07:29:06;;;;;;;7.70;3.10;;;19.60;99.10;;;;;;4934112;29;20397;-82
2021/07/15 07:31:32;;;;;;;7.90;3.30;;;19.50;99.10;;;;;;4934927;29;20016;-82
2021/07/15 07:33:58;;;;;;;5.68;3.13;;;19.60;99.10;;;;;;4918035;29;20035;-83
2021/07/15 07:36:24;;;;;;;7.00;3.25;;;19.50;99.10;;;;;;4938471;29;20044;-82
2021/07/15 07:38:49;;;;;;;7.28;3.20;;;19.50;99.10;;;;;;4920907;29;20364;-82
2021/07/15 07:41:15;;;;;;;9.73;4.15;;;19.50;99.10;;;;;;4938644;29;20369;-82
2021/07/15 07:43:41;;;;;;;10.70;3.53;;;19.50;99.10;;;;;;4921833;29;20019;-82
2021/07/15 07:46:07;;;;;;;9.00;3.75;;;19.50;99.10;;;;;;4937881;29;20047;-82
2021/07/15 07:48:32;;;;;;;8.75;3.67;;;19.50;99.10;;;;;;4937194;29;20026;-82
2021/07/15 07:50:58;;;;;;;8.85;3.20;;;19.60;99.10;;;;;;4936478;29;20470;-83
2021/07/15 07:53:26;;;;;;;9.55;4.80;;;19.50;99.00;;;;;;4938295;29;20403;-82
2021/07/15 07:55:52;;;;;;;9.90;3.72;;;19.50;99.00;;;;;;4920613;29;20028;-82
2021/07/15 07:58:18;;;;;;;8.65;3.28;;;19.50;99.10;;;;;;4920959;29;20027;-82
2021/07/15 08:00:43;;;;;;;10.13;4.45;;;19.60;99.10;;;;;;4921023;29;20024;-82
2021/07/15 08:03:09;;;;;;;7.63;3.38;;;19.60;99.00;;;;;;4920947;29;20051;-82
2021/07/15 08:05:38;;;;;;;8.95;3.58;;;19.70;98.90;;;;;;4921196;29;20027;-82
2021/07/15 08:08:04;;;;;;;8.38;3.88;;;19.80;98.80;;;;;;4920290;29;20106;-82
2021/07/15 08:10:30;;;;;;;8.10;3.72;;;19.90;98.70;;;;;;4937999;29;20024;-82
2021/07/15 08:12:56;;;;;;;8.93;3.88;;;19.90;98.60;;;;;;4920359;29;20110;-82
2021/07/15 08:15:22;;;;;;;8.65;3.28;;;19.90;98.50;;;;;;4920930;29;20019;-83
2021/07/15 08:17:48;;;;;;;9.32;3.67;;;19.90;98.50;;;;;;4920058;29;20456;-83
2021/07/15 08:20:14;;;;;;;7.13;2.88;;;19.90;98.50;;;;;;4920793;29;20070;-82
2021/07/15 08:22:40;;;;;;;5.57;2.70;;;19.90;98.50;;;;;;4937880;29;20032;-82
2021/07/15 08:25:07;;;;;;;6.38;3.53;;;19.90;98.50;;;;;;4935852;29;20039;-83
2021/07/15 08:27:33;;;;;;;8.23;3.22;;;20.00;98.50;;;;;;4920511;29;20020;-82
2021/07/15 08:30:00;;;;;;;7.75;3.13;;;20.10;98.30;;;;;;4937269;29;20444;-82
2021/07/15 08:32:26;;;;;;;8.88;2.95;;;20.20;98.20;;;;;;4920797;29;20416;-82
2021/07/15 08:34:51;;;;;;;8.38;3.22;;;20.20;98.10;;;;;;4919516;29;20119;-82
2021/07/15 08:37:17;;;;;;;6.65;2.75;;;20.20;98.10;;;;;;4937216;29;20090;-82
2021/07/15 08:39:43;;;;;;;9.50;3.63;;;20.10;98.10;;;;;;4936532;29;20079;-81
2021/07/15 08:42:09;;;;;;;7.82;3.15;;;20.10;98.20;;;;;;4920047;29;20404;-82
2021/07/15 08:44:39;;;;;;;7.50;3.78;;;20.00;98.30;;;;;;4937546;29;20044;-82
2021/07/15 08:47:05;;;;;;;8.93;3.20;;;19.90;98.40;;;;;;4936015;29;20079;-82
2021/07/15 08:49:30;;;;;;;8.35;3.95;;;19.70;98.60;;;;;;4935678;29;20027;-82
2021/07/15 08:51:56;;;;;;;10.70;4.63;;;19.60;98.70;;;;;;4919604;29;20020;-83
2021/07/15 08:54:32;;;;;;;9.25;3.35;;;19.60;98.80;;;;;;4920246;29;20373;-83
2021/07/15 08:56:58;;;;;;;9.05;4.35;;;19.50;98.80;;;;;;4919515;29;20015;-83
2021/07/15 08:59:25;;;;;;;10.95;4.30;;;19.50;98.80;;;;;;4936924;29;20427;-82
2021/07/15 09:01:52;;;;;;;9.10;3.92;;;19.50;98.90;;;;;;4935247;29;20027;-83
2021/07/15 09:04:20;;;;;;;10.82;4.15;;;19.60;98.90;;;;;;4919873;29;20023;-82
2021/07/15 09:06:46;;;;;;;9.07;3.88;;;19.60;98.90;;;;;;4935667;29;20026;-82
2021/07/15 09:09:12;;;;;;;11.43;4.43;;;19.50;98.80;;;;;;4935148;29;20020;-82
2021/07/15 09:11:39;;;;;;;8.57;4.45;;;19.50;98.80;;;;;;4936903;29;20521;-82
2021/07/15 09:14:19;;;;;;;8.43;4.30;;;19.50;98.80;;;;;;4935920;29;20453;-82
2021/07/15 09:16:53;;;;;;;8.90;3.85;;;19.50;99.00;;;;;;4919856;29;20538;-82
2021/07/15 09:19:22;;;;;;;8.70;4.10;;;19.50;98.80;;;;;;4920077;29;20035;-83
2021/07/15 09:21:48;;;;;;;7.53;3.85;;;19.50;98.80;;;;;;4936479;29;20365;-82
2021/07/15 09:24:46;;;;;;;8.23;3.90;;;19.40;98.90;;;;;;4918933;29;20016;-82
2021/07/15 09:27:17;;;;;;;11.88;4.47;;;19.40;99.00;;;;;;4919330;29;20106;-82
2021/07/15 09:29:44;;;;;;;10.48;4.18;;;19.30;99.10;;;;;;4936880;29;20034;-82
2021/07/15 09:32:16;;;;;;;8.80;3.83;;;19.30;99.10;;;;;;4936358;29;20199;-82
2021/07/15 09:34:42;;;;;;;8.00;3.83;;;19.30;99.10;;;;;;4921451;29;20110;-82
2021/07/15 09:37:11;;;;;;;6.85;3.80;;;19.30;99.10;;;;;;4931444;29;20043;-82
2021/07/15 09:39:45;;;;;;;8.35;3.78;;;19.30;99.10;;;;;;4916073;29;20173;-82
2021/07/15 09:42:18;;;;;;;11.38;3.88;;;19.30;99.20;;;;;;4915582;29;20335;-82
2021/07/15 09:44:49;;;;;;;12.48;4.15;;;19.30;99.10;;;;;;4917267;29;20110;-82
2021/07/15 09:47:42;;;;;;;9.20;4.38;;;19.40;99.10;;;;;;4915361;29;20456;-82
2021/07/15 09:50:26;;;;;;;10.70;4.40;;;19.50;98.90;;;;;;4915365;29;20048;-82
2021/07/15 09:53:11;;;;;;;7.97;3.88;;;19.50;98.80;;;;;;4915635;29;20035;-82
2021/07/15 09:55:37;;;;;;;7.93;3.85;;;19.60;98.80;;;;;;4915802;29;20036;-82
2021/07/15 09:58:05;;;;;;;7.75;3.35;;;19.60;98.70;;;;;;4915341;29;20024;-82
2021/07/15 10:00:45;;;;;;;9.75;4.30;;;19.60;98.70;;;;;;4915694;29;20031;-82
2021/07/15 10:03:13;;;;;;;9.23;3.78;;;19.60;98.70;;;;;;4915340;29;20028;-82
2021/07/15 10:05:53;;;;;;;7.07;3.78;;;19.60;98.70;;;;;;4915794;29;20043;-82
2021/07/15 10:08:29;;;;;;;10.32;4.38;;;19.70;98.60;;;;;;4915845;29;20031;-82
2021/07/15 10:11:13;;;;;;;11.23;4.40;;;19.70;98.50;;;;;;4915039;29;20035;-82
2021/07/15 10:13:39;;;;;;;9.05;4.55;;;19.70;98.50;;;;;;4915434;29;20436;-82
2021/07/15 10:16:06;;;;;;;8.45;3.47;;;19.70;98.50;;;;;;4930637;29;20024;-82
2021/07/15 10:18:37;;;;;;;8.20;3.88;;;19.80;98.40;;;;;;4916550;29;20432;-82
2021/07/15 10:21:05;;;;;;;6.68;3.65;;;19.80;98.40;;;;;;4914763;29;20140;-82
2021/07/15 10:23:36;;;;;;;7.05;3.90;;;19.80;98.50;;;;;;4915338;29;20027;-82
2021/07/15 10:26:02;;;;;;;;;;;19.70;98.60;;;;;;4915088;29;20112;-83
2021/07/15 10:28:29;;;;;;;6.95;3.40;;;19.70;98.60;;;;;;4916485;29;20343;-82
2021/07/15 10:31:04;;;;;;;6.65;3.25;;;19.70;98.60;;;;;;4915094;29;20020;-84
2021/07/15 10:33:30;;;;;;;8.20;3.75;;;19.60;98.60;;;;;;4915171;29;20324;-82
2021/07/15 10:36:00;;;;;;;7.13;3.72;;;19.60;98.70;;;;;;4916936;29;20058;-83
2021/07/15 10:38:28;;;;;;;6.90;3.22;;;19.60;98.60;;;;;;4918412;29;20075;-83
2021/07/15 10:40:58;;;;;;;8.02;3.35;;;19.60;98.70;;;;;;4935363;29;20099;-83
2021/07/15 10:43:24;;;;;;;8.05;3.70;;;19.70;98.60;;;;;;4918169;29;20044;-82
2021/07/15 10:45:53;;;;;;;10.95;3.85;;;19.70;98.60;;;;;;4918017;29;20039;-82
2021/07/15 10:48:19;;;;;;;8.77;3.75;;;19.70;98.60;;;;;;4917312;29;20019;-82
2021/07/15 10:50:45;;;;;;;7.45;3.25;;;19.70;98.60;;;;;;4934966;29;20453;-82
2021/07/15 10:53:13;;;;;;;9.05;3.97;;;19.70;98.60;;;;;;4934665;29;20107;-82
2021/07/15 10:55:40;;;;;;;10.63;4.20;;;19.70;98.50;;;;;;4935062;29;20054;-83
2021/07/15 10:58:06;;;;;;;6.30;3.45;;;19.70;98.50;;;;;;4934709;29;20020;-83
2021/07/15 11:00:32;;;;;;;8.82;3.42;;;19.80;98.50;;;;;;4933385;29;20480;-83
2021/07/15 11:03:25;;;;;;;7.18;3.28;;;19.90;98.40;;;;;;4934070;29;20043;-84
2021/07/15 11:05:57;;;;;;;9.10;3.05;;;20.00;98.20;;;;;;4915293;29;20465;-83
2021/07/15 11:08:44;;;;;;;5.82;2.83;;;20.00;98.20;;;;;;4917664;29;20023;-82
2021/07/15 11:11:11;;;;;;;5.50;2.88;;;20.10;98.10;;;;;;4934689;29;20027;-83
2021/07/15 11:13:37;;;;;;;7.22;3.10;;;20.10;98.00;;;;;;4935068;29;20115;-82
2021/07/15 11:16:04;;;;;;;5.10;3.00;;;20.10;98.00;;;;;;4917280;29;20111;-83
2021/07/15 11:21:30;;;;;;;6.40;2.60;;;20.10;98.00;;;;;;4934532;29;20091;-82
2021/07/15 11:24:05;;;;;;;4.82;2.58;;;20.10;98.00;;;;;;4917758;29;20127;-83
2021/07/15 11:26:37;;;;;;;5.22;2.63;;;20.10;98.00;;;;;;4934510;29;20048;-82
2021/07/15 11:29:04;;;;;;;9.45;3.35;;;20.10;98.00;;;;;;4917877;29;20023;-83
2021/07/15 11:31:43;;;;;;;7.00;3.00;;;20.10;97.90;;;;;;4917864;29;20506;-83
2021/07/15 11:34:09;;;;;;;6.68;3.28;;;20.10;97.90;;;;;;4916911;29;20059;-83
2021/07/15 11:36:36;;;;;;;6.95;3.60;;;20.10;97.90;;;;;;4917427;29;20095;-83
2021/07/15 11:39:08;;;;;;;6.10;3.30;;;20.10;97.90;;;;;;4917175;29;20032;-83
2021/07/15 11:41:47;;;;;;;8.15;3.88;;;20.10;97.90;;;;;;4917740;29;20027;-83
2021/07/15 11:44:16;;;;;;;8.93;3.40;;;20.20;97.90;;;;;;4934162;29;20564;-83
2021/07/15 11:46:42;;;;;;;8.02;4.07;;;20.10;97.80;;;;;;4917771;29;20364;-82
2021/07/15 11:49:12;;;;;;;6.57;3.40;;;20.20;97.80;;;;;;4916908;29;20035;-83
2021/07/15 11:52:01;;;;;;;6.63;3.45;;;20.20;97.70;;;;;;4917796;29;20034;-82
2021/07/15 11:54:33;;;;;;;7.32;3.72;;;20.20;97.80;;;;;;4917640;29;20110;-83
2021/07/15 11:57:13;;;;;;;7.82;3.40;;;20.20;97.70;;;;;;4917879;29;20349;-82
2021/07/15 12:00:11;;;;;;;7.03;3.45;;;20.30;97.60;;;;;;4918230;29;20456;-81
2021/07/15 12:02:40;;;;;;;7.72;3.33;;;20.20;97.60;;;;;;4918799;29;20103;-82
2021/07/15 12:05:28;;;;;;;7.28;3.80;;;20.30;97.60;;;;;;4917054;29;20596;-82
2021/07/15 12:08:08;;;;;;;7.22;3.85;;;20.30;97.50;;;;;;4917440;29;20027;-82
2021/07/15 12:10:42;;;;;;;7.40;3.40;;;20.40;97.50;;;;;;4917611;29;20031;-82
2021/07/15 12:13:10;;;;;;;5.50;2.92;;;20.30;97.50;;;;;;4916556;29;20027;-82
2021/07/15 12:15:39;;;;;;;5.63;3.13;;;20.40;97.60;;;;;;4933198;29;20012;-82
2021/07/15 12:18:09;;;;;;;6.95;3.80;;;20.40;97.60;;;;;;4933832;29;20368;-82
2021/07/15 12:20:46;;;;;;;8.07;3.60;;;20.30;97.50;;;;;;4917457;29;20035;-82
2021/07/15 12:23:21;;;;;;;7.93;3.75;;;20.40;97.60;;;;;;4920676;29;20060;-83
2021/07/15 12:25:49;;;;;;;7.68;3.72;;;20.40;97.50;;;;;;4920803;29;20016;-81
2021/07/15 12:28:24;;;;;;;8.05;3.55;;;20.40;97.40;;;;;;4935739;29;20044;-82
2021/07/15 12:30:56;;;;;;;7.60;3.92;;;20.50;97.40;;;;;;4921125;29;20102;-82
2021/07/15 12:33:33;;;;;;;9.52;4.10;;;20.50;97.40;;;;;;4937145;29;20012;-82
2021/07/15 12:35:58;;;;;;;8.95;3.70;;;20.50;97.40;;;;;;4938712;29;20401;-82
2021/07/15 12:38:31;;;;;;;8.63;4.18;;;20.40;97.50;;;;;;4937718;29;20135;-81
2021/07/15 12:41:23;;;;;;;9.82;4.55;;;20.40;97.50;;;;;;4938018;29;20068;-82
2021/07/15 12:44:01;;;;;;;8.80;4.03;;;20.40;97.50;;;;;;4920683;29;20095;-83
2021/07/15 12:46:38;;;;;;;6.63;3.55;;;20.40;97.50;;;;;;4937602;29;20020;-82
2021/07/15 12:49:10;;;;;;;9.65;4.20;;;20.40;97.50;;;;;;4925551;29;20044;-84
2021/07/15 12:51:38;;;;;;;8.65;3.85;;;20.40;97.70;;;;;;4927321;29;20391;-82
2021/07/15 12:54:07;;;;;;;8.38;4.80;;;20.50;97.40;;;;;;4940036;29;20448;-83
2021/07/15 12:56:32;;;;;;;6.85;3.67;;;20.50;97.40;;;;;;4920132;29;20030;-82